Butte, ND (58723)

4:54 PM CST on December 18, 2014 (GMT -0600)
Olson Farm | Change Station
CLOSE
Current Station
Personal Weather Station
Location: Max, ND
Elevation: 2008 ft
Nearby Weather Stations

Elev 2008 ft 47.77 °N, 101.17 °W | Updated 9 minutes ago

Overcast
Overcast
21.7 °F
Feels Like 15 °F
N
5.4
Wind Variable Wind from North
Gusts 6.9 mph

Today
High -- | Low -- °F
--% Chance of Precip.
Yesterday
High -- | Low -- °F
Precip. -- in
8:27 AM 4:51 PM
Waning Crescent, 12% visible
Pressure 30.04 in
Visibility 5.0 miles
Clouds Overcast 500 ft
Windchill 15 °F
Dew Point 17 °F
Humidity 82%
Rainfall 0.00 in
Snow Depth Not available.
UV 0 out of 12
Pollen .10 out of 12
Air Quality Not available.
Flu Activity Not available.
METAR K5H4 182235Z AUTO 17008KT 5SM BR OVC005 M06/M06 A3004 RMK AO2

More Conditions Fewer Conditions

Pressure 30.04 in
Visibility 5.0 miles
Clouds Overcast 500 ft
Windchill 15 °F
Dew Point 17 °F
Humidity 82%
Rainfall 0.00 in
Snow Depth Not available.
UV 0 out of 12
Pollen .10 out of 12
Air Quality Not available.
Flu Activity Not available.
METAR K5H4 182235Z AUTO 17008KT 5SM BR OVC005 M06/M06 A3004 RMK AO2

More Conditions Fewer Conditions

10-Day Weather Forecast

Almanac

Astronomy

Dec. 18, 2014 Rise Set
Actual Time
Civil Twilight
Nautical Twilight
Astronomical Twilight
Moon
Length of Visible Light
Length of Day
Tomorrow will be .
, % of the Moon is Illuminated

Today's Extremes

State Highs State Lows

Community

WunderPhotos

Upload Photos

1,779,010 photos uploaded!

WunderBlogs® & News

Nearby

Air Quality

  Air Quality AQ Index Pollutant
Not available.

Snow Depth

Station Depth Elevation

Earthquake Activity

City Distance Mag. Time & Date
Minimum magnitude displayed is 2.5.

Coastal Water Temperatures

Place Temperature

Nearby Weather Stations